SLVRSBCF

Guest
Details From SLVR - VIRU VIRU INTL
To SBCF - Tancredo Neves
Flight Number -
Tags generated
Created
Modified
Stats Distance 1,136 nm / 2,104 km
Max Altitude 35,000 ft / 10,668 m
Waypoints 18
Social Downloads 0
Likes 0
Share VATSIM

Download

Looking for another format? Having issues loading an existing format? Contact us
Advertisement - Login to hide

Notes

Basic altitude profile: - Ascent Rate: 2500ft/min - Ascent Speed: 250kts - Cruise Altitude: 35000ft - Cruise Speed: 420kts - Descent Rate: 1500ft/min - Descent Speed: 250kts Options: - Use NATs: yes - Use PACOTS: yes - Use low airways: yes - Use high airways: yes

Route

SLVR TOTAI UM415 SIDAK UZ22 CGR A304 URP UB688 PONEI BONER 2000S05000W BRUTI URB W11 TARSO SBCF

ID Type Via Altitude Latitude Longitude Leg Dist Tot Dist Heading (true) Name
O SLVR APT - 0 ft / 0 m -17.64476˚ -63.13536˚ - 0 nm - VIRU VIRU INTL
TOTAI FIX - 27,100 ft / 8,260 m -18.18050˚ -61.87606˚ 78 nm 78 nm 114° / 114° -
CAMBA FIX UM415 (AWY-HI) 35,000 ft / 10,668 m -18.39606˚ -61.37188˚ 31 nm 110 nm 114° / 114° -
SIDAK FIX UM415 (AWY-HI) 35,000 ft / 10,668 m -19.64276˚ -58.20929˚ 194 nm 304 nm 113° / 112° -
ARGOS FIX UZ22 (AWY-HI) 35,000 ft / 10,668 m -19.85150˚ -57.42233˚ 46 nm 351 nm 106° / 106° -
CGR VOR UZ22 (AWY-HI) 35,000 ft / 10,668 m -20.46883˚ -54.67033˚ 159 nm 510 nm 104° / 103° CAMPO GRANDE VOR-DME
SIOGA FIX A304 (AWY-LO) 23,500 ft / 7,163 m -20.54367˚ -53.96467˚ 39 nm 550 nm 97° / 96° -
URP VOR A304 (AWY-LO) 23,500 ft / 7,163 m -20.77650˚ -51.55883˚ 135 nm 686 nm 96° / 95° URUBUPUNGA VOR-DME
NUTRI FIX UB688 (AWY-HI) 35,000 ft / 10,668 m -20.47717˚ -51.33533˚ 21 nm 708 nm 35° / 35° -
MEVIL FIX UB688 (AWY-HI) 35,000 ft / 10,668 m -20.36317˚ -51.25033˚ 8 nm 716 nm 35° / 35° -
PONEI FIX UB688 (AWY-HI) 35,000 ft / 10,668 m -20.25500˚ -51.17000˚ 7 nm 724 nm 35° / 35° -
BONER FIX - 35,000 ft / 10,668 m -20.15317˚ -50.58000˚ 33 nm 758 nm 80° / 79° -
2000S05000W LATLON - 35,000 ft / 10,668 m -20.00000˚ -50.00000˚ 33 nm 792 nm 74° / 74° -
BRUTI FIX - 35,000 ft / 10,668 m -19.86800˚ -48.09983˚ 107 nm 900 nm 86° / 85° -
URB NDB - 35,000 ft / 10,668 m -19.76550˚ -47.95917˚ 10 nm 910 nm 52° / 52° UBERABA NDB
ARX VOR W11 (AWY-LO) 23,500 ft / 7,163 m -19.68900˚ -47.06050˚ 51 nm 961 nm 85° / 85° ARAXA VOR-DME
TARSO FIX W11 (AWY-LO) 19,700 ft / 6,005 m -19.63533˚ -45.68033˚ 78 nm 1039 nm 88° / 87° -
O SBCF APT - 0 ft / 0 m -19.63376˚ -43.96885˚ 96 nm 1136 nm 90° / 90° Tancredo Neves

Altitude Profile

Advertisement - Login to hide

Weather


0- 5 10 15 20 25 30 35+ Temperature / ° C

Clouds and Precipitation
Forecast for 2017-12-16 06:00 UTC. Updated 28 minutes ago

Ground ~20,000 ft ~40,000 ft Winds

SLVR

Details ICAO SLVR (VVI)
Name VIRU VIRU INTL
Region Bolivia
Timezone America/La_Paz (UTC-4.0)
Stats Elevation 1,225 ft / 373 m (AMSL)
Location -17.644755° -63.135362°
Runways 1
Magnetic Variation 11.893° W

METAR

SLVR 160100Z 33005KT 9999 NSC 28/24 Q1008 METAR SLCB 160100Z 10010KT 9999 FEW033 22/05 Q1023

Decode

TAF

Not found

Departure Runways

ID Width Length Bearing (true) Bearing (mag) Surface Threshold Offset Overrun Length
16 148 ft / 45 m 11,519 ft / 3,511 m 147.35° 159.24° Concrete 0 ft / 0 m 197 ft / 60 m
34 148 ft / 45 m 11,519 ft / 3,511 m 327.34° 339.23° Concrete 0 ft / 0 m 197 ft / 60 m

SBCF

Details ICAO SBCF (CNF)
Name Tancredo Neves
Region Brazil
Timezone America/Sao_Paulo (UTC-2.0)
Stats Elevation 2,715 ft / 828 m (AMSL)
Location -19.633758° -43.968854°
Runways 1
Magnetic Variation 22.804° W

METAR

SBCF 160100Z 04001KT 9999 FEW035 SCT100 20/18 Q1018

Decode

TAF

TAF SBCF 151600Z 1518/1618 08005KT 8000 BKN020 TX26/1519Z TN17/1608Z PROB30 1518/1522 SCT020 FEW030TCU FM160200 8000 NSC BECMG 1614/1616 07008KT 8000 SCT020 FEW035TCU RMK PDA

Decode

Destination Runways

ID Width Length Bearing (true) Bearing (mag) Surface Threshold Offset Overrun Length
16 148 ft / 45 m 9,872 ft / 3,009 m 138.97° 161.77° Asphalt 0 ft / 0 m 203 ft / 62 m
34 148 ft / 45 m 9,872 ft / 3,009 m 318.96° 341.76° Asphalt 0 ft / 0 m 203 ft / 62 m

Approach Navaids

Runway Type Ident Frequency Range Bearing (true) Bearing (mag) Slope Elevation
16 Localiser ICF 109.70 MHz 18 nm / 33 km 138.90° 161.71° - 2,716 ft / 828 m (AMSL)
16 Glidescope ICF 109.70 MHz 10 nm / 19 km 138.96° 161.77° 3.00° 2,716 ft / 828 m (AMSL)